THY6KL LGAV-LTFM
Flight info
| Callsign | THY6KL |
|---|---|
| Flight time | N/A |
| Altitude | 41000 |
| Route | KRO UN604 INBET |
| Aircraft | A339/H-SADE1E2E3GHIJ3J5M1P2RWXY/LB2D1 |
Departure
| Time | 2026-05-06 13:30 |
|---|---|
| Airport | Athens Eleftherios Venizelos International Airport (LGAV) |
Arrival
| Time | N/A |
|---|---|
| Airport | İstanbul Airport (LTFM) |
| Time | Latitude | Longitude | Altitude | Speed | Heading |
|---|---|---|---|---|---|
| 2026-05-06 12:55 | 37.94086 | 23.95169 | 301 ft | 0 kts | 37° |
| 2026-05-06 13:19 | 37.94078 | 23.95161 | 301 ft | 2 kts | 37° |
| 2026-05-06 13:19 | 37.94066 | 23.95150 | 301 ft | 2 kts | 40° |
| 2026-05-06 13:19 | 37.94056 | 23.95135 | 301 ft | 2 kts | 61° |
| 2026-05-06 13:19 | 37.94050 | 23.95118 | 301 ft | 2 kts | 77° |
| 2026-05-06 13:20 | 37.94048 | 23.95099 | 301 ft | 2 kts | 93° |
| 2026-05-06 13:20 | 37.94051 | 23.95081 | 301 ft | 2 kts | 109° |
| 2026-05-06 13:20 | 37.94057 | 23.95064 | 302 ft | 1 kts | 124° |
| 2026-05-06 13:20 | 37.94060 | 23.95059 | 302 ft | 0 kts | 127° |
| 2026-05-06 13:24 | 37.94049 | 23.95077 | 301 ft | 10 kts | 125° |
| 2026-05-06 13:24 | 37.93978 | 23.95201 | 298 ft | 18 kts | 127° |
| 2026-05-06 13:24 | 37.93889 | 23.95349 | 291 ft | 23 kts | 127° |
| 2026-05-06 13:25 | 37.93836 | 23.95425 | 286 ft | 1 kts | 162° |
| 2026-05-06 13:25 | 37.93812 | 23.95425 | 286 ft | 4 kts | 195° |
| 2026-05-06 13:25 | 37.93804 | 23.95425 | 286 ft | 1 kts | 168° |
| 2026-05-06 13:25 | 37.93800 | 23.95440 | 285 ft | 2 kts | 76° |
| 2026-05-06 13:26 | 37.93836 | 23.95474 | 284 ft | 12 kts | 31° |
| 2026-05-06 13:26 | 37.93952 | 23.95567 | 287 ft | 21 kts | 35° |
| 2026-05-06 13:26 | 37.94071 | 23.95681 | 287 ft | 22 kts | 37° |
| 2026-05-06 13:26 | 37.94199 | 23.95804 | 291 ft | 26 kts | 37° |
| 2026-05-06 13:27 | 37.94363 | 23.95962 | 294 ft | 28 kts | 38° |
| 2026-05-06 13:27 | 37.94511 | 23.96102 | 300 ft | 24 kts | 37° |
| 2026-05-06 13:27 | 37.94643 | 23.96228 | 303 ft | 22 kts | 37° |
| 2026-05-06 13:27 | 37.94758 | 23.96338 | 308 ft | 19 kts | 36° |
| 2026-05-06 13:28 | 37.94865 | 23.96437 | 310 ft | 18 kts | 35° |
| 2026-05-06 13:28 | 37.94958 | 23.96526 | 315 ft | 15 kts | 38° |
| 2026-05-06 13:28 | 37.95066 | 23.96629 | 320 ft | 29 kts | 36° |
| 2026-05-06 13:28 | 37.95235 | 23.96790 | 330 ft | 28 kts | 37° |
| 2026-05-06 13:29 | 37.95286 | 23.96882 | 336 ft | 7 kts | 95° |
| 2026-05-06 13:29 | 37.95248 | 23.96981 | 337 ft | 15 kts | 129° |
| 2026-05-06 13:29 | 37.95166 | 23.97000 | 336 ft | 13 kts | 198° |
| 2026-05-06 13:29 | 37.95109 | 23.96948 | 333 ft | 11 kts | 217° |
| 2026-05-06 13:30 | 37.94827 | 23.96681 | 313 ft | 87 kts | 216° |
| 2026-05-06 13:30 | 37.94170 | 23.96063 | 285 ft | 146 kts | 216° |
| 2026-05-06 13:30 | 37.93307 | 23.95266 | 637 ft | 163 kts | 211° |
| 2026-05-06 13:30 | 37.92317 | 23.94637 | 1343 ft | 160 kts | 204° |
| 2026-05-06 13:31 | 37.91329 | 23.94063 | 2065 ft | 157 kts | 206° |
| 2026-05-06 13:31 | 37.90341 | 23.93445 | 2513 ft | 166 kts | 207° |
| 2026-05-06 13:31 | 37.89268 | 23.92728 | 2848 ft | 183 kts | 208° |
| 2026-05-06 13:31 | 37.88118 | 23.91929 | 3188 ft | 199 kts | 209° |
| 2026-05-06 13:32 | 37.86853 | 23.91040 | 3520 ft | 217 kts | 210° |
| 2026-05-06 13:32 | 37.85473 | 23.90059 | 3910 ft | 235 kts | 210° |
| 2026-05-06 13:32 | 37.84023 | 23.89023 | 4443 ft | 247 kts | 210° |
| 2026-05-06 13:32 | 37.82520 | 23.87950 | 5220 ft | 251 kts | 210° |
| 2026-05-06 13:33 | 37.81031 | 23.86886 | 5988 ft | 253 kts | 210° |
| 2026-05-06 13:33 | 37.79526 | 23.85810 | 6733 ft | 256 kts | 210° |
| 2026-05-06 13:33 | 37.77931 | 23.84839 | 7467 ft | 261 kts | 195° |
| 2026-05-06 13:33 | 37.76147 | 23.84752 | 8191 ft | 267 kts | 168° |
| 2026-05-06 13:34 | 37.74454 | 23.85713 | 8876 ft | 276 kts | 143° |
| 2026-05-06 13:34 | 37.73211 | 23.87620 | 9364 ft | 292 kts | 120° |
| 2026-05-06 13:34 | 37.72273 | 23.89925 | 10120 ft | 296 kts | 117° |
| 2026-05-06 13:34 | 37.71350 | 23.92284 | 10744 ft | 306 kts | 117° |
| 2026-05-06 13:35 | 37.70365 | 23.94742 | 11126 ft | 324 kts | 117° |
| 2026-05-06 13:35 | 37.69303 | 23.97341 | 11483 ft | 342 kts | 118° |
| 2026-05-06 13:35 | 37.68171 | 24.00077 | 11925 ft | 357 kts | 118° |
| 2026-05-06 13:35 | 37.67019 | 24.02847 | 12640 ft | 362 kts | 118° |
| 2026-05-06 13:36 | 37.65844 | 24.05671 | 13428 ft | 366 kts | 118° |
| 2026-05-06 13:36 | 37.64657 | 24.08520 | 14175 ft | 370 kts | 118° |
| 2026-05-06 13:36 | 37.63464 | 24.11381 | 14895 ft | 374 kts | 118° |
| 2026-05-06 13:36 | 37.62247 | 24.14295 | 15622 ft | 379 kts | 118° |
| 2026-05-06 13:37 | 37.61013 | 24.17245 | 16341 ft | 383 kts | 118° |
| 2026-05-06 13:37 | 37.59786 | 24.20237 | 17048 ft | 388 kts | 115° |
| 2026-05-06 13:37 | 37.59095 | 24.23511 | 17704 ft | 394 kts | 95° |
| 2026-05-06 13:37 | 37.59315 | 24.26926 | 18378 ft | 399 kts | 75° |
| 2026-05-06 13:38 | 37.60466 | 24.30129 | 19049 ft | 403 kts | 54° |
| 2026-05-06 13:38 | 37.62394 | 24.32624 | 19688 ft | 406 kts | 34° |
| 2026-05-06 13:38 | 37.64919 | 24.34210 | 20330 ft | 407 kts | 18° |
| 2026-05-06 13:38 | 37.67585 | 24.35374 | 20952 ft | 411 kts | 17° |
| 2026-05-06 13:39 | 37.70311 | 24.36525 | 21532 ft | 416 kts | 17° |
| 2026-05-06 13:39 | 37.73060 | 24.37703 | 22108 ft | 420 kts | 17° |
| 2026-05-06 13:39 | 37.75843 | 24.38919 | 22679 ft | 424 kts | 17° |
| 2026-05-06 13:39 | 37.78607 | 24.40143 | 23224 ft | 428 kts | 17° |
| 2026-05-06 13:40 | 37.81406 | 24.41392 | 23754 ft | 432 kts | 18° |
| 2026-05-06 13:40 | 37.84231 | 24.42659 | 24270 ft | 435 kts | 18° |
| 2026-05-06 13:40 | 37.87075 | 24.43937 | 24771 ft | 439 kts | 18° |
| 2026-05-06 13:40 | 37.89977 | 24.45242 | 25271 ft | 442 kts | 18° |
| 2026-05-06 13:41 | 37.92879 | 24.46549 | 25749 ft | 446 kts | 18° |
| 2026-05-06 13:41 | 37.95795 | 24.47887 | 26206 ft | 450 kts | 20° |
| 2026-05-06 13:41 | 37.98568 | 24.49686 | 26636 ft | 455 kts | 31° |
| 2026-05-06 13:41 | 38.01073 | 24.52138 | 27074 ft | 460 kts | 42° |
| 2026-05-06 13:42 | 38.03249 | 24.55119 | 27512 ft | 463 kts | 49° |
| 2026-05-06 13:42 | 38.05309 | 24.58268 | 27991 ft | 465 kts | 50° |
| 2026-05-06 13:42 | 38.07330 | 24.61422 | 28425 ft | 467 kts | 50° |
| 2026-05-06 13:42 | 38.09408 | 24.64649 | 28835 ft | 470 kts | 50° |
| 2026-05-06 13:43 | 38.11461 | 24.67807 | 29208 ft | 473 kts | 50° |
| 2026-05-06 13:43 | 38.13578 | 24.71044 | 29577 ft | 476 kts | 50° |
| 2026-05-06 13:43 | 38.15699 | 24.74279 | 29941 ft | 479 kts | 50° |
| 2026-05-06 13:43 | 38.17813 | 24.77507 | 30297 ft | 482 kts | 50° |
| 2026-05-06 13:44 | 38.19958 | 24.80789 | 30649 ft | 484 kts | 50° |
| 2026-05-06 13:44 | 38.22108 | 24.84080 | 30994 ft | 487 kts | 50° |
| 2026-05-06 13:44 | 38.24294 | 24.87429 | 31327 ft | 490 kts | 50° |
| 2026-05-06 13:44 | 38.26441 | 24.90722 | 31683 ft | 491 kts | 50° |
| 2026-05-06 13:45 | 38.28637 | 24.94092 | 32151 ft | 490 kts | 50° |
| 2026-05-06 13:45 | 38.32932 | 25.00697 | 33073 ft | 488 kts | 50° |
| 2026-05-06 13:45 | 38.35092 | 25.04024 | 33518 ft | 486 kts | 49° |
| 2026-05-06 13:46 | 38.37247 | 25.07344 | 33952 ft | 485 kts | 49° |
| 2026-05-06 13:46 | 38.39393 | 25.10656 | 34385 ft | 484 kts | 49° |
| 2026-05-06 13:46 | 38.41499 | 25.13908 | 34819 ft | 482 kts | 49° |
| 2026-05-06 13:46 | 38.43636 | 25.17217 | 35258 ft | 480 kts | 49° |
| 2026-05-06 13:47 | 38.45742 | 25.20482 | 35682 ft | 478 kts | 49° |
| 2026-05-06 13:47 | 38.47838 | 25.23729 | 36082 ft | 477 kts | 49° |
| 2026-05-06 13:47 | 38.49929 | 25.26969 | 36439 ft | 476 kts | 49° |
| 2026-05-06 13:47 | 38.52018 | 25.30209 | 36754 ft | 476 kts | 49° |
| 2026-05-06 13:48 | 38.54128 | 25.33486 | 37050 ft | 476 kts | 49° |
| 2026-05-06 13:48 | 38.56226 | 25.36746 | 37341 ft | 476 kts | 49° |
| 2026-05-06 13:48 | 38.58323 | 25.40010 | 37627 ft | 476 kts | 49° |
| 2026-05-06 13:48 | 38.60420 | 25.43277 | 37907 ft | 476 kts | 49° |
| 2026-05-06 13:49 | 38.62506 | 25.46530 | 38178 ft | 476 kts | 49° |
| 2026-05-06 13:49 | 38.64597 | 25.49794 | 38440 ft | 476 kts | 49° |
| 2026-05-06 13:49 | 38.66684 | 25.53056 | 38694 ft | 476 kts | 49° |
| 2026-05-06 13:49 | 38.68766 | 25.56313 | 38945 ft | 476 kts | 49° |
| 2026-05-06 13:50 | 38.70852 | 25.59580 | 39186 ft | 476 kts | 49° |
| 2026-05-06 13:50 | 38.72931 | 25.62838 | 39395 ft | 477 kts | 49° |
| 2026-05-06 13:50 | 38.75025 | 25.66124 | 39577 ft | 478 kts | 49° |
| 2026-05-06 13:50 | 38.77122 | 25.69416 | 39738 ft | 479 kts | 49° |
| 2026-05-06 13:51 | 38.79231 | 25.72733 | 39904 ft | 480 kts | 49° |
| 2026-05-06 13:51 | 38.81321 | 25.76021 | 40071 ft | 481 kts | 49° |
| 2026-05-06 13:51 | 38.83456 | 25.79386 | 40238 ft | 482 kts | 49° |
| 2026-05-06 13:51 | 38.85540 | 25.82672 | 40393 ft | 483 kts | 49° |
| 2026-05-06 13:52 | 38.87687 | 25.86061 | 40549 ft | 484 kts | 49° |
| 2026-05-06 13:52 | 38.89779 | 25.89368 | 40700 ft | 485 kts | 49° |
| 2026-05-06 13:52 | 38.91909 | 25.92737 | 40854 ft | 486 kts | 49° |
| 2026-05-06 13:52 | 38.94035 | 25.96104 | 40986 ft | 487 kts | 49° |
| 2026-05-06 13:53 | 38.98276 | 26.02831 | 41008 ft | 488 kts | 49° |
| 2026-05-06 13:53 | 39.02521 | 26.09585 | 41029 ft | 487 kts | 49° |
| 2026-05-06 13:54 | 39.06787 | 26.16383 | 41045 ft | 487 kts | 49° |
| 2026-05-06 13:54 | 39.11006 | 26.23113 | 41054 ft | 487 kts | 49° |
| 2026-05-06 13:55 | 39.15247 | 26.29895 | 41058 ft | 486 kts | 49° |
| 2026-05-06 13:55 | 39.19565 | 26.36523 | 41059 ft | 485 kts | 44° |
| 2026-05-06 13:56 | 39.24453 | 26.42429 | 41056 ft | 481 kts | 34° |
| 2026-05-06 13:56 | 39.29976 | 26.47263 | 41060 ft | 480 kts | 30° |
| 2026-05-06 13:57 | 39.35536 | 26.51988 | 41060 ft | 480 kts | 31° |
| 2026-05-06 13:57 | 39.41029 | 26.56885 | 41167 ft | 481 kts | 32° |
| 2026-05-06 13:58 | 39.46465 | 26.61784 | 41161 ft | 481 kts | 32° |